sensor_id;sensor_type;location;lat;lon;timestamp;pressure;altitude;pressure_sealevel;temperature;humidity
51289;BME280;37372;52.294;5.152;2023-02-02T00:00:54;102132.84;;;6.33;100.00
51289;BME280;37372;52.294;5.152;2023-02-02T00:03:19;102130.53;;;6.35;100.00
51289;BME280;37372;52.294;5.152;2023-02-02T00:05:50;102138.53;;;6.36;100.00
51289;BME280;37372;52.294;5.152;2023-02-02T00:08:17;102135.03;;;6.39;100.00
51289;BME280;37372;52.294;5.152;2023-02-02T00:10:43;102138.78;;;6.31;100.00
51289;BME280;37372;52.294;5.152;2023-02-02T00:13:08;102147.59;;;6.33;100.00
51289;BME280;37372;52.294;5.152;2023-02-02T00:15:34;102136.09;;;6.35;100.00
51289;BME280;37372;52.294;5.152;2023-02-02T00:17:59;102140.94;;;6.38;100.00
51289;BME280;37372;52.294;5.152;2023-02-02T00:20:25;102138.97;;;6.38;100.00
51289;BME280;37372;52.294;5.152;2023-02-02T00:22:50;102134.91;;;6.36;100.00
51289;BME280;37372;52.294;5.152;2023-02-02T00:25:16;102133.06;;;6.40;100.00
51289;BME280;37372;52.294;5.152;2023-02-02T00:27:41;102140.16;;;6.37;100.00
51289;BME280;37372;52.294;5.152;2023-02-02T00:30:08;102129.47;;;6.39;100.00
51289;BME280;37372;52.294;5.152;2023-02-02T00:32:34;102139.22;;;6.33;100.00
51289;BME280;37372;52.294;5.152;2023-02-02T00:34:59;102136.09;;;6.35;100.00
51289;BME280;37372;52.294;5.152;2023-02-02T00:37:25;102137.69;;;6.36;100.00
51289;BME280;37372;52.294;5.152;2023-02-02T00:39:50;102133.66;;;6.33;100.00
51289;BME280;37372;52.294;5.152;2023-02-02T00:42:16;102140.66;;;6.27;100.00
51289;BME280;37372;52.294;5.152;2023-02-02T00:44:42;102141.50;;;6.15;100.00
51289;BME280;37372;52.294;5.152;2023-02-02T00:47:25;102139.31;;;6.08;100.00
51289;BME280;37372;52.294;5.152;2023-02-02T00:49:51;102136.88;;;6.07;100.00
51289;BME280;37372;52.294;5.152;2023-02-02T00:52:16;102131.91;;;6.00;100.00
51289;BME280;37372;52.294;5.152;2023-02-02T00:54:41;102138.91;;;5.94;100.00
51289;BME280;37372;52.294;5.152;2023-02-02T00:57:11;102141.69;;;5.94;100.00
51289;BME280;37372;52.294;5.152;2023-02-02T00:59:36;102144.78;;;5.93;100.00
51289;BME280;37372;52.294;5.152;2023-02-02T01:02:02;102149.53;;;5.92;100.00
51289;BME280;37372;52.294;5.152;2023-02-02T01:04:27;102152.34;;;5.80;100.00
51289;BME280;37372;52.294;5.152;2023-02-02T01:06:53;102149.34;;;5.73;100.00
51289;BME280;37372;52.294;5.152;2023-02-02T01:09:18;102150.25;;;5.77;100.00
51289;BME280;37372;52.294;5.152;2023-02-02T01:11:44;102150.50;;;5.72;100.00
51289;BME280;37372;52.294;5.152;2023-02-02T01:14:09;102150.50;;;5.72;100.00
51289;BME280;37372;52.294;5.152;2023-02-02T01:16:35;102163.72;;;5.75;100.00
51289;BME280;37372;52.294;5.152;2023-02-02T01:19:00;102156.53;;;5.74;100.00
51289;BME280;37372;52.294;5.152;2023-02-02T01:21:26;102155.50;;;5.78;100.00
51289;BME280;37372;52.294;5.152;2023-02-02T01:23:51;102147.00;;;5.75;100.00
51289;BME280;37372;52.294;5.152;2023-02-02T01:26:16;102138.47;;;5.68;100.00
51289;BME280;37372;52.294;5.152;2023-02-02T01:28:43;102149.13;;;5.65;100.00
51289;BME280;37372;52.294;5.152;2023-02-02T01:31:11;102149.22;;;5.69;100.00
51289;BME280;37372;52.294;5.152;2023-02-02T01:33:37;102143.78;;;5.73;100.00
51289;BME280;37372;52.294;5.152;2023-02-02T01:36:05;102145.63;;;5.69;100.00
51289;BME280;37372;52.294;5.152;2023-02-02T01:38:31;102149.22;;;5.69;100.00
51289;BME280;37372;52.294;5.152;2023-02-02T01:40:57;102146.56;;;5.73;100.00
51289;BME280;37372;52.294;5.152;2023-02-02T01:43:29;102153.28;;;5.72;100.00
51289;BME280;37372;52.294;5.152;2023-02-02T01:45:56;102150.97;;;5.74;100.00
51289;BME280;37372;52.294;5.152;2023-02-02T01:48:29;102153.66;;;5.70;100.00
51289;BME280;37372;52.294;5.152;2023-02-02T01:50:59;102158.38;;;5.70;100.00
51289;BME280;37372;52.294;5.152;2023-02-02T01:53:26;102159.47;;;5.65;100.00
51289;BME280;37372;52.294;5.152;2023-02-02T01:55:53;102158.19;;;5.62;100.00
51289;BME280;37372;52.294;5.152;2023-02-02T01:58:25;102159.56;;;5.69;100.00
51289;BME280;37372;52.294;5.152;2023-02-02T02:00:52;102153.75;;;5.61;100.00
51289;BME280;37372;52.294;5.152;2023-02-02T02:03:24;102152.38;;;5.68;100.00
51289;BME280;37372;52.294;5.152;2023-02-02T02:05:56;102150.66;;;5.63;100.00
51289;BME280;37372;52.294;5.152;2023-02-02T02:08:31;102149.22;;;5.69;100.00
51289;BME280;37372;52.294;5.152;2023-02-02T02:10:58;102142.53;;;5.70;100.00
51289;BME280;37372;52.294;5.152;2023-02-02T02:13:26;102138.66;;;5.75;100.00
51289;BME280;37372;52.294;5.152;2023-02-02T02:16:27;102139.59;;;5.79;100.00
51289;BME280;37372;52.294;5.152;2023-02-02T02:19:11;102135.06;;;5.74;100.00
51289;BME280;37372;52.294;5.152;2023-02-02T02:21:46;102137.75;;;5.83;100.00
51289;BME280;37372;52.294;5.152;2023-02-02T02:30:53;102126.69;;;5.86;100.00
51289;BME280;37372;52.294;5.152;2023-02-02T02:33:08;102126.78;;;5.90;100.00
51289;BME280;37372;52.294;5.152;2023-02-02T02:38:18;102119.84;;;5.96;100.00
51289;BME280;37372;52.294;5.152;2023-02-02T02:40:52;102120.88;;;5.92;100.00
51289;BME280;37372;52.294;5.152;2023-02-02T02:43:23;102123.66;;;6.04;100.00
51289;BME280;37372;52.294;5.152;2023-02-02T02:45:51;102120.88;;;6.04;100.00
51289;BME280;37372;52.294;5.152;2023-02-02T02:48:16;102128.06;;;6.05;100.00
51289;BME280;37372;52.294;5.152;2023-02-02T02:50:42;102122.16;;;6.06;100.00
51289;BME280;37372;52.294;5.152;2023-02-02T02:53:12;102126.91;;;6.06;100.00
51289;BME280;37372;52.294;5.152;2023-02-02T02:55:47;102121.69;;;6.04;100.00
51289;BME280;37372;52.294;5.152;2023-02-02T03:01:02;102141.88;;;6.14;100.00
51289;BME280;37372;52.294;5.152;2023-02-02T03:06:22;102145.56;;;6.18;100.00
51289;BME280;37372;52.294;5.152;2023-02-02T03:08:54;102145.66;;;6.21;100.00
51289;BME280;37372;52.294;5.152;2023-02-02T03:11:22;102142.88;;;6.21;100.00
51289;BME280;37372;52.294;5.152;2023-02-02T03:13:48;102147.84;;;6.28;100.00
51289;BME280;37372;52.294;5.152;2023-02-02T03:16:14;102150.28;;;6.29;100.00
51289;BME280;37372;52.294;5.152;2023-02-02T03:18:40;102160.84;;;6.36;100.00
51289;BME280;37372;52.294;5.152;2023-02-02T03:21:06;102152.47;;;6.36;100.00
51289;BME280;37372;52.294;5.152;2023-02-02T03:23:32;102152.47;;;6.36;100.00
51289;BME280;37372;52.294;5.152;2023-02-02T03:25:58;102159.66;;;6.37;100.00
51289;BME280;37372;52.294;5.152;2023-02-02T03:28:24;102160.84;;;6.36;100.00
51289;BME280;37372;52.294;5.152;2023-02-02T03:30:51;102155.13;;;6.33;100.00
51289;BME280;37372;52.294;5.152;2023-02-02T03:33:17;102159.41;;;6.42;100.00
51289;BME280;37372;52.294;5.152;2023-02-02T03:35:43;102155.91;;;6.45;100.00
51289;BME280;37372;52.294;5.152;2023-02-02T03:38:09;102144.88;;;6.49;100.00
51289;BME280;37372;52.294;5.152;2023-02-02T03:40:35;102150.69;;;6.44;100.00
51289;BME280;37372;52.294;5.152;2023-02-02T03:43:00;102140.44;;;6.48;100.00
51289;BME280;37372;52.294;5.152;2023-02-02T03:45:26;102148.25;;;6.42;100.00
51289;BME280;37372;52.294;5.152;2023-02-02T03:47:52;102149.06;;;6.43;100.00
51289;BME280;37372;52.294;5.152;2023-02-02T03:50:17;102145.00;;;6.40;100.00
51289;BME280;37372;52.294;5.152;2023-02-02T03:52:43;102146.44;;;6.34;100.00
51289;BME280;37372;52.294;5.152;2023-02-02T03:55:08;102151.28;;;6.37;100.00
51289;BME280;37372;52.294;5.152;2023-02-02T03:57:33;102149.06;;;6.43;100.00
51289;BME280;37372;52.294;5.152;2023-02-02T03:59:59;102141.06;;;6.41;100.00
51289;BME280;37372;52.294;5.152;2023-02-02T04:02:24;102150.88;;;6.51;100.00
51289;BME280;37372;52.294;5.152;2023-02-02T04:04:49;102146.38;;;6.46;100.00
51289;BME280;37372;52.294;5.152;2023-02-02T04:07:15;102149.88;;;6.43;100.00
51289;BME280;37372;52.294;5.152;2023-02-02T04:09:40;102143.09;;;6.57;100.00
51289;BME280;37372;52.294;5.152;2023-02-02T04:12:06;102131.72;;;6.49;100.00
51289;BME280;37372;52.294;5.152;2023-02-02T04:14:31;102137.31;;;6.49;100.00
51289;BME280;37372;52.294;5.152;2023-02-02T04:16:56;102128.22;;;6.52;100.00
51289;BME280;37372;52.294;5.152;2023-02-02T04:19:22;102134.59;;;6.53;100.00
51289;BME280;37372;52.294;5.152;2023-02-02T04:21:47;102136.34;;;6.58;100.00
51289;BME280;37372;52.294;5.152;2023-02-02T04:24:13;102136.06;;;6.63;100.00
51289;BME280;37372;52.294;5.152;2023-02-02T04:26:39;102138.41;;;6.61;100.00
51289;BME280;37372;52.294;5.152;2023-02-02T04:29:04;102134.72;;;6.57;100.00
51289;BME280;37372;52.294;5.152;2023-02-02T04:31:30;102144.91;;;6.65;100.00
51289;BME280;37372;52.294;5.152;2023-02-02T04:33:56;102153.53;;;6.60;100.00
51289;BME280;37372;52.294;5.152;2023-02-02T04:36:22;102163.22;;;6.66;100.00
51289;BME280;37372;52.294;5.152;2023-02-02T04:38:48;102159.72;;;6.69;100.00
51289;BME280;37372;52.294;5.152;2023-02-02T04:41:14;102163.22;;;6.66;100.00
51289;BME280;37372;52.294;5.152;2023-02-02T04:43:40;102154.41;;;6.64;100.00
51289;BME280;37372;52.294;5.152;2023-02-02T04:46:05;102153.00;;;6.70;100.00
51289;BME280;37372;52.294;5.152;2023-02-02T04:48:31;102151.56;;;6.76;100.00
51289;BME280;37372;52.294;5.152;2023-02-02T04:51:04;102145.44;;;6.70;100.00
51289;BME280;37372;52.294;5.152;2023-02-02T04:53:31;102157.25;;;6.80;100.00
51289;BME280;37372;52.294;5.152;2023-02-02T04:55:57;102151.75;;;6.83;100.00
51289;BME280;37372;52.294;5.152;2023-02-02T04:58:22;102159.66;;;6.81;100.00
51289;BME280;37372;52.294;5.152;2023-02-02T05:00:48;102170.81;;;6.81;100.00
51289;BME280;37372;52.294;5.152;2023-02-02T05:03:14;102178.03;;;6.82;100.00
51289;BME280;37372;52.294;5.152;2023-02-02T05:05:39;102175.34;;;6.86;100.00
51289;BME280;37372;52.294;5.152;2023-02-02T05:08:04;102171.47;;;6.74;100.00
51289;BME280;37372;52.294;5.152;2023-02-02T05:10:32;102156.63;;;6.86;100.00
51289;BME280;37372;52.294;5.152;2023-02-02T05:12:57;102153.47;;;6.88;100.00
51289;BME280;37372;52.294;5.152;2023-02-02T05:15:23;102159.31;;;6.83;100.00
51289;BME280;37372;52.294;5.152;2023-02-02T05:17:48;102168.41;;;6.80;100.00
51289;BME280;37372;52.294;5.152;2023-02-02T05:20:14;102165.97;;;6.78;100.00
51289;BME280;37372;52.294;5.152;2023-02-02T05:22:39;102162.72;;;6.76;100.00
51289;BME280;37372;52.294;5.152;2023-02-02T05:25:06;102163.72;;;6.84;100.00
51289;BME280;37372;52.294;5.152;2023-02-02T05:27:32;102171.53;;;6.78;100.00
51289;BME280;37372;52.294;5.152;2023-02-02T05:29:58;102170.94;;;6.85;100.00
51289;BME280;37372;52.294;5.152;2023-02-02T05:32:23;102167.31;;;6.84;100.00
51289;BME280;37372;52.294;5.152;2023-02-02T05:34:49;102169.94;;;6.77;100.00
51289;BME280;37372;52.294;5.152;2023-02-02T05:37:14;102178.72;;;6.79;100.00
51289;BME280;37372;52.294;5.152;2023-02-02T05:39:40;102163.19;;;6.78;100.00
51289;BME280;37372;52.294;5.152;2023-02-02T05:42:05;102166.88;;;6.82;100.00
51289;BME280;37372;52.294;5.152;2023-02-02T05:44:31;102173.16;;;6.79;100.00
51289;BME280;37372;52.294;5.152;2023-02-02T05:46:56;102177.72;;;6.71;100.00
51289;BME280;37372;52.294;5.152;2023-02-02T05:49:22;102171.34;;;6.71;100.00
51289;BME280;37372;52.294;5.152;2023-02-02T05:51:50;102186.00;;;6.68;100.00
51289;BME280;37372;52.294;5.152;2023-02-02T05:54:16;102181.34;;;6.72;100.00
51289;BME280;37372;52.294;5.152;2023-02-02T05:56:45;102178.81;;;6.67;100.00
51289;BME280;37372;52.294;5.152;2023-02-02T05:59:11;102182.56;;;6.59;100.00
51289;BME280;37372;52.294;5.152;2023-02-02T06:01:36;102184.66;;;6.62;100.00
51289;BME280;37372;52.294;5.152;2023-02-02T06:04:02;102179.16;;;6.65;100.00
51289;BME280;37372;52.294;5.152;2023-02-02T06:06:27;102180.59;;;6.59;100.00
51289;BME280;37372;52.294;5.152;2023-02-02T06:08:52;102176.97;;;6.59;100.00
51289;BME280;37372;52.294;5.152;2023-02-02T06:11:18;102185.16;;;6.51;100.00
51289;BME280;37372;52.294;5.152;2023-02-02T06:13:44;102181.41;;;6.60;100.00
51289;BME280;37372;52.294;5.152;2023-02-02T06:16:09;102181.41;;;6.60;100.00
51289;BME280;37372;52.294;5.152;2023-02-02T06:18:35;102186.06;;;6.56;100.00
51289;BME280;37372;52.294;5.152;2023-02-02T06:21:02;102193.41;;;6.48;100.00
51289;BME280;37372;52.294;5.152;2023-02-02T06:23:30;102190.91;;;6.59;100.00
51289;BME280;37372;52.294;5.152;2023-02-02T06:25:56;102198.38;;;6.55;100.00
51289;BME280;37372;52.294;5.152;2023-02-02T06:28:21;102194.66;;;6.50;100.00
51289;BME280;37372;52.294;5.152;2023-02-02T06:30:47;102200.97;;;6.47;100.00
51289;BME280;37372;52.294;5.152;2023-02-02T06:33:12;102209.06;;;6.52;100.00
51289;BME280;37372;52.294;5.152;2023-02-02T06:35:37;102208.25;;;6.52;100.00
51289;BME280;37372;52.294;5.152;2023-02-02T06:38:03;102210.94;;;6.48;100.00
51289;BME280;37372;52.294;5.152;2023-02-02T06:40:29;102222.81;;;6.45;100.00
51289;BME280;37372;52.294;5.152;2023-02-02T06:42:58;102220.94;;;6.49;100.00
51289;BME280;37372;52.294;5.152;2023-02-02T06:45:24;102219.28;;;6.48;100.00
51289;BME280;37372;52.294;5.152;2023-02-02T06:47:56;102227.91;;;6.43;100.00
51289;BME280;37372;52.294;5.152;2023-02-02T06:50:22;102223.41;;;6.39;100.00
51289;BME280;37372;52.294;5.152;2023-02-02T06:52:48;102228.53;;;6.37;100.00
51289;BME280;37372;52.294;5.152;2023-02-02T06:55:14;102224.69;;;6.41;100.00
51289;BME280;37372;52.294;5.152;2023-02-02T06:57:39;102223.03;;;6.40;100.00
51289;BME280;37372;52.294;5.152;2023-02-02T07:00:05;102223.50;;;6.42;100.00
51289;BME280;37372;52.294;5.152;2023-02-02T07:02:31;102224.09;;;6.36;100.00
51289;BME280;37372;52.294;5.152;2023-02-02T07:04:56;102224.47;;;6.34;100.00
51289;BME280;37372;52.294;5.152;2023-02-02T07:07:22;102216.13;;;6.34;100.00
51289;BME280;37372;52.294;5.152;2023-02-02T07:09:47;102221.13;;;6.28;100.00
51289;BME280;37372;52.294;5.152;2023-02-02T07:12:13;102219.47;;;6.27;100.00
51289;BME280;37372;52.294;5.152;2023-02-02T07:14:38;102226.00;;;6.32;100.00
51289;BME280;37372;52.294;5.152;2023-02-02T07:17:03;102220.88;;;6.34;100.00
51289;BME280;37372;52.294;5.152;2023-02-02T07:19:29;102235.63;;;6.34;100.00
51289;BME280;37372;52.294;5.152;2023-02-02T07:21:54;102233.63;;;6.35;100.00
51289;BME280;37372;52.294;5.152;2023-02-02T07:24:19;102232.13;;;6.37;100.00
51289;BME280;37372;52.294;5.152;2023-02-02T07:26:45;102246.16;;;6.41;100.00
51289;BME280;37372;52.294;5.152;2023-02-02T07:29:13;102249.78;;;6.41;100.00
51289;BME280;37372;52.294;5.152;2023-02-02T07:31:39;102247.88;;;6.45;100.00
51289;BME280;37372;52.294;5.152;2023-02-02T07:34:05;102255.53;;;6.48;100.00
51289;BME280;37372;52.294;5.152;2023-02-02T07:36:31;102254.38;;;6.49;100.00
51289;BME280;37372;52.294;5.152;2023-02-02T07:38:56;102253.69;;;6.52;100.00
51289;BME280;37372;52.294;5.152;2023-02-02T07:41:22;102245.78;;;6.55;100.00
51289;BME280;37372;52.294;5.152;2023-02-02T07:43:48;102253.69;;;6.52;100.00
51289;BME280;37372;52.294;5.152;2023-02-02T07:46:15;102272.94;;;6.58;100.00
51289;BME280;37372;52.294;5.152;2023-02-02T07:48:41;102271.69;;;6.55;100.00
51289;BME280;37372;52.294;5.152;2023-02-02T07:51:12;102280.13;;;6.59;100.00
51289;BME280;37372;52.294;5.152;2023-02-02T07:53:42;102282.59;;;6.60;100.00
51289;BME280;37372;52.294;5.152;2023-02-02T07:58:35;102287.44;;;6.63;100.00
51289;BME280;37372;52.294;5.152;2023-02-02T08:01:06;102272.09;;;6.69;100.00
51289;BME280;37372;52.294;5.152;2023-02-02T08:03:31;102279.63;;;6.69;100.00
51289;BME280;37372;52.294;5.152;2023-02-02T08:05:57;102283.13;;;6.66;100.00
51289;BME280;37372;52.294;5.152;2023-02-02T08:08:23;102293.03;;;6.63;100.00
51289;BME280;37372;52.294;5.152;2023-02-02T08:10:50;102276.66;;;6.62;100.00
51289;BME280;37372;52.294;5.152;2023-02-02T08:13:16;102276.28;;;6.63;100.00
51289;BME280;37372;52.294;5.152;2023-02-02T08:15:41;102289.69;;;6.58;100.00
51289;BME280;37372;52.294;5.152;2023-02-02T08:18:07;102285.13;;;6.65;100.00
51289;BME280;37372;52.294;5.152;2023-02-02T08:20:32;102290.91;;;6.72;100.00
51289;BME280;37372;52.294;5.152;2023-02-02T08:22:58;102296.72;;;6.80;100.00
51289;BME280;37372;52.294;5.152;2023-02-02T08:25:24;102309.22;;;6.86;100.00
51289;BME280;37372;52.294;5.152;2023-02-02T08:27:53;102310.59;;;6.92;100.00
51289;BME280;37372;52.294;5.152;2023-02-02T08:30:18;102305.84;;;6.92;100.00
51289;BME280;37372;52.294;5.152;2023-02-02T08:32:43;102319.31;;;6.90;100.00
51289;BME280;37372;52.294;5.152;2023-02-02T08:35:09;102315.34;;;6.91;100.00
51289;BME280;37372;52.294;5.152;2023-02-02T08:37:34;102308.88;;;6.87;100.00
51289;BME280;37372;52.294;5.152;2023-02-02T08:40:00;102319.06;;;6.95;100.00
51289;BME280;37372;52.294;5.152;2023-02-02T08:42:25;102329.44;;;6.95;100.00
51289;BME280;37372;52.294;5.152;2023-02-02T08:44:50;102328.38;;;7.00;100.00
51289;BME280;37372;52.294;5.152;2023-02-02T08:47:16;102324.63;;;7.08;100.00
51289;BME280;37372;52.294;5.152;2023-02-02T08:49:41;102336.22;;;7.10;100.00
51289;BME280;37372;52.294;5.152;2023-02-02T08:52:07;102332.72;;;7.13;100.00
51289;BME280;37372;52.294;5.152;2023-02-02T08:54:33;102343.16;;;7.16;100.00
51289;BME280;37372;52.294;5.152;2023-02-02T08:56:58;102338.19;;;7.09;100.00
51289;BME280;37372;52.294;5.152;2023-02-02T08:59:24;102341.56;;;7.15;100.00
51289;BME280;37372;52.294;5.152;2023-02-02T09:01:49;102348.75;;;7.16;100.00
51289;BME280;37372;52.294;5.152;2023-02-02T09:04:15;102342.13;;;7.21;100.00
51289;BME280;37372;52.294;5.152;2023-02-02T09:06:41;102342.94;;;7.37;100.00
51289;BME280;37372;52.294;5.152;2023-02-02T09:09:13;102350.19;;;7.38;100.00
51289;BME280;37372;52.294;5.152;2023-02-02T09:11:39;102357.56;;;7.46;100.00
51289;BME280;37372;52.294;5.152;2023-02-02T09:14:05;102357.66;;;7.50;100.00
51289;BME280;37372;52.294;5.152;2023-02-02T09:16:32;102361.72;;;7.52;100.00
51289;BME280;37372;52.294;5.152;2023-02-02T09:18:57;102367.22;;;7.49;100.00
51289;BME280;37372;52.294;5.152;2023-02-02T09:21:23;102366.50;;;7.52;100.00
51289;BME280;37372;52.294;5.152;2023-02-02T09:23:49;102372.81;;;7.49;100.00
51289;BME280;37372;52.294;5.152;2023-02-02T09:26:19;102377.84;;;7.43;100.00
51289;BME280;37372;52.294;5.152;2023-02-02T09:28:47;102378.66;;;7.44;100.00
51289;BME280;37372;52.294;5.152;2023-02-02T09:31:13;102370.34;;;7.47;100.00
51289;BME280;37372;52.294;5.152;2023-02-02T09:33:39;102375.47;;;7.45;100.00
51289;BME280;37372;52.294;5.152;2023-02-02T09:36:10;102370.47;;;7.51;100.00
51289;BME280;37372;52.294;5.152;2023-02-02T09:38:37;102377.25;;;7.37;100.00
51289;BME280;37372;52.294;5.152;2023-02-02T09:43:58;102381.44;;;7.44;100.00
51289;BME280;37372;52.294;5.152;2023-02-02T09:46:59;102387.09;;;7.47;100.00
51289;BME280;37372;52.294;5.152;2023-02-02T09:49:38;102388.63;;;7.45;100.00
51289;BME280;37372;52.294;5.152;2023-02-02T09:52:12;102394.16;;;7.57;100.00
51289;BME280;37372;52.294;5.152;2023-02-02T09:54:44;102391.56;;;7.64;100.00
51289;BME280;37372;52.294;5.152;2023-02-02T09:57:38;102398.22;;;7.59;100.00
51289;BME280;37372;52.294;5.152;2023-02-02T10:00:18;102399.28;;;7.55;100.00
51289;BME280;37372;52.294;5.152;2023-02-02T10:02:49;102395.22;;;7.52;100.00
51289;BME280;37372;52.294;5.152;2023-02-02T10:05:21;102398.47;;;7.54;100.00
51289;BME280;37372;52.294;5.152;2023-02-02T10:07:54;102397.69;;;7.54;100.00
51289;BME280;37372;52.294;5.152;2023-02-02T10:10:32;102397.94;;;7.49;100.00
51289;BME280;37372;52.294;5.152;2023-02-02T10:13:04;102406.50;;;7.56;100.00
51289;BME280;37372;52.294;5.152;2023-02-02T10:16:01;102404.06;;;7.54;100.00
51289;BME280;37372;52.294;5.152;2023-02-02T10:21:32;102409.38;;;7.59;100.00
51289;BME280;37372;52.294;5.152;2023-02-02T10:24:01;102409.75;;;7.58;100.00
51289;BME280;37372;52.294;5.152;2023-02-02T10:26:37;102416.34;;;7.66;100.00
51289;BME280;37372;52.294;5.152;2023-02-02T10:29:27;102422.03;;;7.69;100.00
51289;BME280;37372;52.294;5.152;2023-02-02T10:32:01;102427.34;;;7.74;100.00
51289;BME280;37372;52.294;5.152;2023-02-02T10:37:28;102426.91;;;7.72;100.00
51289;BME280;37372;52.294;5.152;2023-02-02T10:45:09;102425.94;;;7.52;100.00
51289;BME280;37372;52.294;5.152;2023-02-02T10:47:37;102420.91;;;7.58;100.00
51289;BME280;37372;52.294;5.152;2023-02-02T10:52:40;102423.66;;;7.70;100.00
51289;BME280;37372;52.294;5.152;2023-02-02T10:55:16;102429.63;;;7.85;100.00
51289;BME280;37372;52.294;5.152;2023-02-02T11:00:34;102427.09;;;7.79;100.00
51289;BME280;37372;52.294;5.152;2023-02-02T11:03:03;102421.78;;;7.74;100.00
51289;BME280;37372;52.294;5.152;2023-02-02T11:05:31;102420.19;;;7.89;100.00
51289;BME280;37372;52.294;5.152;2023-02-02T11:08:18;102421.78;;;7.90;100.00
51289;BME280;37372;52.294;5.152;2023-02-02T11:10:47;102433.09;;;7.94;100.00
51289;BME280;37372;52.294;5.152;2023-02-02T11:13:28;102431.03;;;8.07;100.00
51289;BME280;37372;52.294;5.152;2023-02-02T11:18:38;102429.03;;;7.91;100.00
51289;BME280;37372;52.294;5.152;2023-02-02T11:21:17;102431.72;;;8.03;100.00
51289;BME280;37372;52.294;5.152;2023-02-02T11:27:00;102424.78;;;8.13;100.00
51289;BME280;37372;52.294;5.152;2023-02-02T11:37:51;102425.97;;;8.12;100.00
51289;BME280;37372;52.294;5.152;2023-02-02T11:42:54;102433.22;;;7.85;100.00
51289;BME280;37372;52.294;5.152;2023-02-02T11:45:38;102429.09;;;7.95;100.00
51289;BME280;37372;52.294;5.152;2023-02-02T11:48:18;102428.84;;;8.00;100.00
51289;BME280;37372;52.294;5.152;2023-02-02T11:50:47;102417.28;;;7.86;100.00
51289;BME280;37372;52.294;5.152;2023-02-02T11:53:22;102417.19;;;7.98;100.00
51289;BME280;37372;52.294;5.152;2023-02-02T11:55:48;102422.78;;;7.98;100.00
51289;BME280;37372;52.294;5.152;2023-02-02T11:58:22;102411.63;;;7.98;100.00
51289;BME280;37372;52.294;5.152;2023-02-02T12:00:58;102422.25;;;8.08;100.00
51289;BME280;37372;52.294;5.152;2023-02-02T12:03:37;102424.78;;;7.97;100.00
51289;BME280;37372;52.294;5.152;2023-02-02T12:06:32;102423.50;;;7.95;100.00
51289;BME280;37372;52.294;5.152;2023-02-02T12:09:01;102428.56;;;8.05;100.00
51289;BME280;37372;52.294;5.152;2023-02-02T12:14:53;102419.25;;;7.85;100.00
51289;BME280;37372;52.294;5.152;2023-02-02T12:36:00;102410.72;;;7.94;100.00
51289;BME280;37372;52.294;5.152;2023-02-02T12:41:21;102410.34;;;7.79;100.00
51289;BME280;37372;52.294;5.152;2023-02-02T12:44:03;102420.59;;;7.75;100.00
51289;BME280;37372;52.294;5.152;2023-02-02T12:46:36;102409.47;;;7.63;100.00
51289;BME280;37372;52.294;5.152;2023-02-02T12:52:15;102405.78;;;7.59;100.00
51289;BME280;37372;52.294;5.152;2023-02-02T12:55:06;102397.16;;;7.64;100.00
51289;BME280;37372;52.294;5.152;2023-02-02T12:57:59;102398.75;;;7.65;100.00
51289;BME280;37372;52.294;5.152;2023-02-02T13:03:29;102390.94;;;7.71;100.00
51289;BME280;37372;52.294;5.152;2023-02-02T13:09:16;102404.25;;;7.61;100.00
51289;BME280;37372;52.294;5.152;2023-02-02T13:12:12;102399.41;;;7.58;100.00
51289;BME280;37372;52.294;5.152;2023-02-02T13:14:44;102399.81;;;7.45;100.00
51289;BME280;37372;52.294;5.152;2023-02-02T13:19:51;102402.84;;;7.39;100.00
51289;BME280;37372;52.294;5.152;2023-02-02T13:22:25;102409.41;;;7.31;100.00
51289;BME280;37372;52.294;5.152;2023-02-02T13:24:54;102402.97;;;7.15;100.00
51289;BME280;37372;52.294;5.152;2023-02-02T13:27:22;102404.22;;;7.17;100.00
51289;BME280;37372;52.294;5.152;2023-02-02T13:30:02;102405.63;;;7.11;100.00
51289;BME280;37372;52.294;5.152;2023-02-02T13:32:32;102404.03;;;6.98;100.00
51289;BME280;37372;52.294;5.152;2023-02-02T13:35:17;102404.63;;;6.91;100.00
51289;BME280;37372;52.294;5.152;2023-02-02T13:37:55;102402.66;;;6.92;100.00
51289;BME280;37372;52.294;5.152;2023-02-02T13:40:24;102404.38;;;6.96;100.00
51289;BME280;37372;52.294;5.152;2023-02-02T14:02:29;102403.56;;;6.96;100.00
51289;BME280;37372;52.294;5.152;2023-02-02T14:04:58;102400.47;;;6.85;100.00
51289;BME280;37372;52.294;5.152;2023-02-02T14:07:35;102404.88;;;6.86;100.00
51289;BME280;37372;52.294;5.152;2023-02-02T14:10:01;102404.16;;;6.89;100.00
51289;BME280;37372;52.294;5.152;2023-02-02T14:12:31;102413.81;;;6.92;100.00
51289;BME280;37372;52.294;5.152;2023-02-02T14:14:57;102421.38;;;6.91;100.00
51289;BME280;37372;52.294;5.152;2023-02-02T14:24:58;102407.66;;;6.86;100.00
51289;BME280;37372;52.294;5.152;2023-02-02T14:45:47;102418.00;;;6.86;100.00
51289;BME280;37372;52.294;5.152;2023-02-02T14:48:19;102429.06;;;6.82;100.00
51289;BME280;37372;52.294;5.152;2023-02-02T14:50:54;102414.88;;;6.87;100.00
51289;BME280;37372;52.294;5.152;2023-02-02T14:53:24;102427.78;;;6.80;100.00
51289;BME280;37372;52.294;5.152;2023-02-02T14:55:54;102426.63;;;6.81;100.00
51289;BME280;37372;52.294;5.152;2023-02-02T15:01:09;102433.13;;;6.85;100.00
51289;BME280;37372;52.294;5.152;2023-02-02T15:19:44;102455.44;;;6.85;100.00
51289;BME280;37372;52.294;5.152;2023-02-02T15:22:36;102450.19;;;6.95;100.00
51289;BME280;37372;52.294;5.152;2023-02-02T15:28:12;102458.81;;;6.90;100.00
51289;BME280;37372;52.294;5.152;2023-02-02T15:30:44;102453.47;;;6.98;100.00
51289;BME280;37372;52.294;5.152;2023-02-02T15:33:34;102450.19;;;6.95;100.00
51289;BME280;37372;52.294;5.152;2023-02-02T15:36:03;102455.56;;;6.88;100.00